Strona główna
METAR-TAF:

METAR-TAF

Lotnisko :

RAF

Holbeach, Anglia

Szerokość geograficzna: 52-52N, Długość geograficzna: 000-09E, wysokość: 3 m

Aktualna obserwacja pogody

Raport powstał 25 minut temu, godzina 11:50 UTC
Wiatr 32 kt od zachodnio-południowy zachód
Temperatura 11°C
Wilgotność 94%
Ciśnienie 1001 hPa
Widzialność 10 km lub więcej
Mało chmury na wysokości 800 ft
Przerywane chmury na wysokości 3000 ft

METAR: EGYH 241150Z 24032KT 9999 FEW008 BKN030 11/10 Q1001 RMK BLU

czas: 12:15 (12:15 UTC)


TAF: brakujący

Obserwacja i prognoza pogody dla ponad 4000 lotnisk (raport METAR i TAF).

Dostępne stacje oznaczono żółtymi i czerwonymi punktami na mapie.

Najedź kursorem aby zobaczyć nazwę stacji.

Kliknij aby zobaczyć obserwacje i prognozy pogody.

Aby zmienić mapę: kliknij na zielony przycisk z czarnym krzyżykiem, aby powiększyć; na zielony przycisk z myślnikiem, aby pomniejszyć; na zielone strzałki, aby przejść do map sąsiednich.


METAR-TAF: